createdAt,value
2018-09-10T00:01:28.343Z,99.06
2018-09-10T00:03:58.531Z,98.85
2018-09-10T00:06:28.679Z,99.55
2018-09-10T00:08:58.841Z,99.76
2018-09-10T00:11:28.980Z,99.99
2018-09-10T00:13:59.051Z,100.00
2018-09-10T00:16:29.180Z,100.00
2018-09-10T00:18:59.252Z,100.00
2018-09-10T00:21:29.679Z,100.00
2018-09-10T00:23:59.810Z,100.00
2018-09-10T00:26:29.943Z,100.00
2018-09-10T00:29:00.098Z,100.00
2018-09-10T00:31:30.215Z,100.00
2018-09-10T00:34:00.382Z,100.00
2018-09-10T00:36:30.474Z,100.00
2018-09-10T00:39:00.674Z,100.00
2018-09-10T00:41:30.761Z,100.00
2018-09-10T00:44:00.888Z,100.00
2018-09-10T00:46:31.020Z,100.00
2018-09-10T00:49:01.143Z,99.29
2018-09-10T00:51:31.327Z,98.85
2018-09-10T00:54:01.476Z,97.84
2018-09-10T00:56:31.623Z,97.61
2018-09-10T00:59:01.767Z,96.98
2018-09-10T01:01:31.919Z,96.49
2018-09-10T01:04:02.081Z,96.35
2018-09-10T01:06:32.215Z,96.36
2018-09-10T01:09:12.918Z,95.71
2018-09-10T01:11:43.707Z,96.08
2018-09-10T01:14:13.868Z,96.28
2018-09-10T01:16:48.158Z,96.72
2018-09-10T01:19:18.408Z,96.91
2018-09-10T01:21:48.465Z,97.77
2018-09-10T01:24:18.602Z,98.17
2018-09-10T01:26:48.765Z,99.15
2018-09-10T01:29:18.934Z,98.67
2018-09-10T01:31:49.039Z,99.34
2018-09-10T01:34:24.101Z,99.50
2018-09-10T01:36:54.330Z,99.81
2018-09-10T01:39:24.634Z,99.10
2018-09-10T01:41:54.749Z,98.92
2018-09-10T01:44:24.897Z,97.73
2018-09-10T01:46:54.986Z,97.43
2018-09-10T01:49:25.118Z,96.59
2018-09-10T01:51:55.195Z,96.57
2018-09-10T01:54:25.360Z,95.69
2018-09-10T01:56:55.543Z,95.27
2018-09-10T01:59:25.675Z,94.94
2018-09-10T02:01:55.777Z,95.07
2018-09-10T02:04:25.957Z,94.62
2018-09-10T02:06:56.041Z,94.19
2018-09-10T02:09:26.133Z,94.01
2018-09-10T02:11:56.232Z,94.50
2018-09-10T02:14:26.385Z,94.54
2018-09-10T02:16:56.622Z,94.79
2018-09-10T02:19:26.769Z,94.36
2018-09-10T02:21:56.917Z,94.71
2018-09-10T02:24:27.176Z,94.46
2018-09-10T02:26:57.809Z,94.74
2018-09-10T02:29:27.853Z,94.72
2018-09-10T02:31:57.935Z,94.49
2018-09-10T02:34:28.114Z,95.73
2018-09-10T02:36:58.185Z,95.61
2018-09-10T02:39:28.331Z,95.29
2018-09-10T02:41:58.436Z,94.11
2018-09-10T02:44:28.508Z,94.42
2018-09-10T02:46:58.650Z,95.86
2018-09-10T02:49:28.767Z,96.02
2018-09-10T02:51:58.908Z,95.66
2018-09-10T02:54:29.045Z,94.81
2018-09-10T02:56:59.186Z,94.42
2018-09-10T02:59:29.350Z,93.96
2018-09-10T03:01:59.474Z,93.60
2018-09-10T03:04:30.523Z,93.52
2018-09-10T03:07:00.757Z,93.39
2018-09-10T03:09:31.038Z,93.04
2018-09-10T03:12:01.464Z,94.59
2018-09-10T03:14:31.585Z,94.76
2018-09-10T03:17:01.722Z,94.42
2018-09-10T03:19:31.997Z,94.26
2018-09-10T03:22:02.982Z,93.78
2018-09-10T03:24:33.277Z,93.40
2018-09-10T03:27:03.455Z,93.06
2018-09-10T03:29:33.586Z,92.58
2018-09-10T03:32:03.792Z,91.79
2018-09-10T03:34:34.038Z,90.96
2018-09-10T03:37:04.229Z,91.62
2018-09-10T03:39:34.460Z,91.84
2018-09-10T03:42:04.644Z,90.83
2018-09-10T03:44:34.849Z,90.16
2018-09-10T03:47:04.971Z,89.71
2018-09-10T03:49:35.083Z,89.03
2018-09-10T03:52:05.169Z,89.26
2018-09-10T03:54:35.487Z,89.34
2018-09-10T03:57:05.895Z,87.90
2018-09-10T03:59:36.042Z,86.79
2018-09-10T04:02:06.333Z,87.28
2018-09-10T04:04:36.799Z,88.07
2018-09-10T04:07:07.287Z,89.08
2018-09-10T04:09:37.359Z,89.30
2018-09-10T04:12:12.876Z,89.93
2018-09-10T04:14:43.102Z,89.27
2018-09-10T04:17:13.340Z,88.67
2018-09-10T04:19:43.407Z,88.23
2018-09-10T04:22:13.534Z,89.27
2018-09-10T04:24:44.168Z,90.37
2018-09-10T04:27:14.261Z,89.35
2018-09-10T04:29:44.551Z,90.09
2018-09-10T04:32:14.717Z,90.33
2018-09-10T04:34:44.835Z,91.01
2018-09-10T04:37:14.973Z,91.19
2018-09-10T04:39:45.033Z,91.00
2018-09-10T04:42:15.214Z,91.09
2018-09-10T04:44:45.363Z,90.56
2018-09-10T04:47:15.479Z,91.43
2018-09-10T04:49:45.754Z,91.41
2018-09-10T04:52:15.898Z,91.28
2018-09-10T04:54:46.015Z,92.42
2018-09-10T04:57:16.098Z,92.57
2018-09-10T04:59:46.183Z,93.02
2018-09-10T05:02:16.286Z,93.27
2018-09-10T05:04:46.444Z,93.37
2018-09-10T05:07:16.752Z,93.53
2018-09-10T05:09:46.944Z,94.08
2018-09-10T05:12:17.007Z,94.35
2018-09-10T05:14:47.144Z,94.42
2018-09-10T05:17:17.221Z,94.23
2018-09-10T05:19:47.318Z,93.82
2018-09-10T05:22:17.471Z,95.09
2018-09-10T05:24:47.593Z,94.47
2018-09-10T05:27:17.634Z,94.80
2018-09-10T05:29:47.726Z,94.34
2018-09-10T05:32:17.883Z,94.38
2018-09-10T05:34:48.178Z,94.41
2018-09-10T05:37:18.320Z,94.48
2018-09-10T05:39:48.452Z,93.82
2018-09-10T05:42:18.540Z,92.84
2018-09-10T05:44:48.611Z,93.80
2018-09-10T05:47:18.823Z,94.74
2018-09-10T05:49:49.001Z,94.69
2018-09-10T05:52:19.150Z,94.70
2018-09-10T05:54:49.232Z,94.35
2018-09-10T05:57:19.449Z,93.29
2018-09-10T05:59:49.574Z,93.29
2018-09-10T06:02:19.679Z,92.75
2018-09-10T06:04:49.775Z,92.78
2018-09-10T06:07:19.878Z,92.29
2018-09-10T06:09:49.979Z,92.03
2018-09-10T06:12:20.141Z,91.73
2018-09-10T06:14:50.330Z,91.17
2018-09-10T06:17:20.463Z,91.74
2018-09-10T06:19:50.565Z,91.28
2018-09-10T06:22:21.165Z,90.88
2018-09-10T06:24:51.285Z,91.42
2018-09-10T06:27:21.594Z,91.74
2018-09-10T06:29:51.734Z,91.59
2018-09-10T06:32:21.847Z,91.36
2018-09-10T06:34:52.081Z,91.76
2018-09-10T06:37:22.155Z,92.29
2018-09-10T06:39:52.254Z,92.71
2018-09-10T06:42:22.500Z,92.28
2018-09-10T06:44:52.739Z,92.59
2018-09-10T06:47:23.012Z,92.19
2018-09-10T06:49:53.275Z,92.63
2018-09-10T06:52:23.426Z,92.13
2018-09-10T06:54:53.552Z,91.80
2018-09-10T06:57:23.697Z,91.13
2018-09-10T06:59:54.198Z,90.23
2018-09-10T07:02:24.310Z,89.51
2018-09-10T07:04:54.737Z,88.38
2018-09-10T07:07:24.951Z,88.58
2018-09-10T07:09:55.146Z,86.81
2018-09-10T07:12:25.319Z,87.20
2018-09-10T07:14:55.490Z,86.88
2018-09-10T07:17:25.661Z,86.04
2018-09-10T07:19:55.987Z,86.18
2018-09-10T07:22:26.297Z,84.80
2018-09-10T07:24:56.462Z,84.79
2018-09-10T07:27:27.182Z,84.32
2018-09-10T07:29:57.342Z,84.27
2018-09-10T07:32:27.556Z,85.43
2018-09-10T07:34:57.735Z,84.65
2018-09-10T07:37:27.938Z,85.68
2018-09-10T07:39:58.210Z,85.81
2018-09-10T07:42:28.559Z,86.43
2018-09-10T07:44:58.729Z,86.30
2018-09-10T07:47:29.034Z,85.78
2018-09-10T07:49:59.270Z,85.01
2018-09-10T07:52:30.113Z,84.45
2018-09-10T07:55:00.438Z,84.74
2018-09-10T07:57:30.572Z,84.02
2018-09-10T08:00:01.160Z,84.82
2018-09-10T08:02:31.550Z,84.31
2018-09-10T08:05:01.748Z,84.93
2018-09-10T08:07:32.110Z,85.35
2018-09-10T08:10:02.144Z,83.60
2018-09-10T08:12:32.264Z,82.97
2018-09-10T08:15:02.371Z,82.86
2018-09-10T08:17:32.571Z,81.95
2018-09-10T08:20:02.705Z,80.70
2018-09-10T08:22:33.037Z,81.00
2018-09-10T08:25:03.189Z,78.73
2018-09-10T08:27:33.599Z,76.50
2018-09-10T08:30:03.863Z,72.82
2018-09-10T08:32:33.959Z,73.66
2018-09-10T08:35:04.092Z,76.06
2018-09-10T08:37:34.260Z,75.78
2018-09-10T08:40:04.539Z,76.47
2018-09-10T08:42:34.686Z,78.26
2018-09-10T08:45:04.912Z,80.54
2018-09-10T08:47:35.013Z,78.54
2018-09-10T08:50:05.991Z,77.48
2018-09-10T08:52:36.234Z,78.32
2018-09-10T08:55:06.630Z,76.85
2018-09-10T08:57:36.818Z,75.18
2018-09-10T09:00:07.065Z,74.93
2018-09-10T09:02:37.188Z,72.46
2018-09-10T09:05:07.424Z,71.71
2018-09-10T09:07:37.902Z,69.29
2018-09-10T09:10:08.205Z,70.63
2018-09-10T09:12:38.370Z,71.13
2018-09-10T09:15:08.612Z,72.25
2018-09-10T09:17:38.771Z,70.98
2018-09-10T09:20:09.213Z,70.15
2018-09-10T09:22:39.391Z,67.90
2018-09-10T09:25:09.521Z,66.17
2018-09-10T09:27:39.812Z,65.59
2018-09-10T09:30:09.947Z,65.39
2018-09-10T09:32:40.026Z,62.22
2018-09-10T09:35:10.204Z,63.13
2018-09-10T09:37:45.466Z,64.06
2018-09-10T09:40:20.620Z,64.70
2018-09-10T09:42:55.798Z,61.68
2018-09-10T09:45:30.884Z,62.58
2018-09-10T09:48:01.087Z,63.36
2018-09-10T09:50:31.219Z,64.31
2018-09-10T09:53:01.371Z,63.57
2018-09-10T09:55:31.432Z,63.82
2018-09-10T09:58:01.589Z,65.49
2018-09-10T10:00:36.774Z,64.85
2018-09-10T10:03:12.142Z,66.48
2018-09-10T10:05:42.268Z,65.95
2018-09-10T10:08:12.626Z,68.12
2018-09-10T10:10:42.707Z,69.46
2018-09-10T10:13:12.914Z,70.39
2018-09-10T10:15:42.963Z,68.59
2018-09-10T10:18:13.119Z,69.87
2018-09-10T10:20:43.219Z,70.87
2018-09-10T10:23:13.358Z,71.12
2018-09-10T10:25:43.449Z,68.19
2018-09-10T10:28:13.596Z,67.73
2018-09-10T10:30:43.698Z,68.41
2018-09-10T10:33:13.835Z,67.90
2018-09-10T10:35:43.912Z,67.04
2018-09-10T10:38:14.100Z,66.30
2018-09-10T10:40:44.208Z,61.26
2018-09-10T10:43:14.277Z,61.01
2018-09-10T10:45:44.371Z,63.04
2018-09-10T10:48:14.513Z,65.95
2018-09-10T10:50:44.624Z,65.35
2018-09-10T10:53:14.775Z,68.34
2018-09-10T10:55:44.877Z,65.52
2018-09-10T10:58:15.295Z,67.31
2018-09-10T11:00:45.373Z,67.61
2018-09-10T11:03:15.493Z,67.07
2018-09-10T11:05:45.613Z,62.78
2018-09-10T11:08:15.795Z,61.93
2018-09-10T11:10:45.965Z,61.04
2018-09-10T11:13:16.110Z,60.15
2018-09-10T11:15:46.243Z,60.68
2018-09-10T11:18:16.467Z,60.90
2018-09-10T11:20:46.534Z,58.06
2018-09-10T11:23:16.662Z,59.48
2018-09-10T11:25:46.735Z,56.81
2018-09-10T11:28:16.996Z,54.66
2018-09-10T11:30:47.171Z,54.88
2018-09-10T11:33:17.348Z,55.95
2018-09-10T11:35:47.460Z,59.04
2018-09-10T11:38:17.564Z,58.72
2018-09-10T11:40:47.753Z,59.36
2018-09-10T11:43:17.922Z,59.58
2018-09-10T11:45:48.045Z,58.94
2018-09-10T11:48:18.133Z,58.10
2018-09-10T11:50:48.203Z,54.45
2018-09-10T11:53:18.364Z,56.91
2018-09-10T11:55:48.457Z,59.70
2018-09-10T11:58:18.604Z,62.29
2018-09-10T12:00:48.713Z,60.03
2018-09-10T12:03:18.888Z,60.14
2018-09-10T12:05:49.016Z,60.58
2018-09-10T12:08:19.136Z,62.14
2018-09-10T12:10:49.230Z,61.76
2018-09-10T12:13:19.394Z,62.85
2018-09-10T12:15:49.522Z,62.91
2018-09-10T12:18:19.682Z,62.15
2018-09-10T12:20:49.790Z,63.46
2018-09-10T12:23:19.940Z,64.73
2018-09-10T12:25:50.117Z,65.93
2018-09-10T12:28:20.207Z,64.12
2018-09-10T12:30:50.341Z,64.34
2018-09-10T12:33:20.672Z,65.69
2018-09-10T12:35:50.769Z,65.26
2018-09-10T12:38:20.962Z,64.90
2018-09-10T12:40:51.131Z,62.67
2018-09-10T12:43:21.223Z,63.06
2018-09-10T12:45:51.294Z,64.39
2018-09-10T12:48:21.449Z,63.51
2018-09-10T12:50:51.508Z,61.67
2018-09-10T12:53:22.273Z,61.01
2018-09-10T12:55:52.312Z,61.43
2018-09-10T12:58:22.498Z,58.57
2018-09-10T13:00:52.601Z,62.19
2018-09-10T13:03:22.725Z,62.47
2018-09-10T13:05:52.829Z,59.83
2018-09-10T13:08:22.947Z,58.15
2018-09-10T13:10:53.082Z,58.54
2018-09-10T13:13:23.179Z,57.69
2018-09-10T13:15:53.276Z,56.48
2018-09-10T13:18:23.404Z,54.28
2018-09-10T13:20:53.512Z,53.25
2018-09-10T13:23:23.736Z,56.78
2018-09-10T13:25:53.799Z,54.83
2018-09-10T13:28:24.164Z,54.14
2018-09-10T13:30:54.230Z,54.00
2018-09-10T13:33:24.368Z,55.66
2018-09-10T13:35:54.453Z,58.67
2018-09-10T13:38:24.554Z,59.88
2018-09-10T13:40:54.626Z,61.08
2018-09-10T13:43:24.757Z,62.75
2018-09-10T13:45:54.919Z,64.36
2018-09-10T13:48:25.108Z,65.20
2018-09-10T13:50:55.172Z,65.04
2018-09-10T13:53:25.389Z,64.57
2018-09-10T13:55:55.499Z,64.46
2018-09-10T13:58:25.790Z,62.72
2018-09-10T14:00:55.882Z,63.04
2018-09-10T14:03:26.039Z,60.33
2018-09-10T14:05:56.083Z,59.54
2018-09-10T14:08:26.224Z,61.28
2018-09-10T14:10:56.337Z,63.33
2018-09-10T14:13:26.543Z,59.63
2018-09-10T14:15:56.683Z,62.19
2018-09-10T14:18:26.735Z,61.52
2018-09-10T14:20:56.812Z,60.30
2018-09-10T14:23:27.009Z,59.93
2018-09-10T14:25:57.312Z,59.71
2018-09-10T14:28:27.582Z,58.14
2018-09-10T14:30:57.677Z,58.19
2018-09-10T14:33:27.824Z,58.53
2018-09-10T14:35:58.014Z,59.32
2018-09-10T14:38:28.129Z,59.20
2018-09-10T14:40:58.206Z,61.81
2018-09-10T14:43:28.418Z,61.55
2018-09-10T14:45:58.570Z,61.75
2018-09-10T14:48:28.865Z,61.91
2018-09-10T14:50:59.230Z,62.19
2018-09-10T14:53:29.350Z,58.91
2018-09-10T14:55:59.840Z,60.50
2018-09-10T14:58:33.215Z,60.64
2018-09-10T15:01:03.632Z,59.34
2018-09-10T15:03:33.730Z,58.56
2018-09-10T15:06:03.769Z,60.26
2018-09-10T15:08:33.943Z,58.39
2018-09-10T15:11:04.104Z,59.41
2018-09-10T15:13:34.265Z,58.75
2018-09-10T15:16:04.557Z,61.95
2018-09-10T15:18:34.949Z,59.25
2018-09-10T15:21:05.085Z,62.83
2018-09-10T15:23:35.417Z,62.81
2018-09-10T15:26:05.658Z,63.19
2018-09-10T15:28:35.808Z,62.21
2018-09-10T15:31:05.955Z,62.36
2018-09-10T15:33:36.201Z,62.21
2018-09-10T15:36:06.298Z,62.71
2018-09-10T15:38:36.626Z,60.20
2018-09-10T15:41:06.757Z,60.97
2018-09-10T15:43:37.029Z,59.93
2018-09-10T15:46:07.130Z,60.60
2018-09-10T15:48:37.306Z,60.20
2018-09-10T15:51:07.758Z,61.98
2018-09-10T15:53:38.063Z,63.44
2018-09-10T15:56:08.251Z,63.46
2018-09-10T15:58:38.585Z,62.17
2018-09-10T16:01:08.742Z,61.54
2018-09-10T16:03:38.949Z,62.56
2018-09-10T16:06:09.054Z,61.27
2018-09-10T16:08:39.310Z,63.43
2018-09-10T16:11:09.477Z,65.55
2018-09-10T16:13:39.630Z,63.68
2018-09-10T16:16:09.799Z,64.74
2018-09-10T16:18:39.897Z,65.14
2018-09-10T16:21:10.003Z,65.25
2018-09-10T16:23:40.430Z,65.50
2018-09-10T16:26:10.527Z,66.13
2018-09-10T16:28:40.725Z,67.45
2018-09-10T16:31:10.863Z,68.53
2018-09-10T16:33:41.001Z,68.90
2018-09-10T16:36:11.162Z,69.24
2018-09-10T16:38:41.322Z,70.17
2018-09-10T16:41:11.524Z,69.36
2018-09-10T16:43:41.634Z,70.36
2018-09-10T16:46:11.822Z,72.68
2018-09-10T16:48:41.922Z,72.58
2018-09-10T16:51:12.133Z,70.13
2018-09-10T16:53:42.324Z,71.93
2018-09-10T16:56:12.429Z,72.60
2018-09-10T16:58:42.567Z,72.80
2018-09-10T17:01:12.687Z,73.31
2018-09-10T17:03:42.812Z,73.66
2018-09-10T17:06:12.984Z,72.92
2018-09-10T17:08:43.280Z,73.19
2018-09-10T17:11:13.384Z,73.75
2018-09-10T17:13:43.505Z,74.82
2018-09-10T17:16:13.865Z,75.65
2018-09-10T17:18:44.167Z,75.74
2018-09-10T17:21:14.262Z,76.43
2018-09-10T17:23:44.481Z,76.41
2018-09-10T17:26:14.658Z,76.12
2018-09-10T17:28:46.450Z,76.15
2018-09-10T17:31:16.648Z,76.44
2018-09-10T17:33:46.761Z,77.79
2018-09-10T17:36:16.915Z,77.87
2018-09-10T17:38:47.079Z,78.74
2018-09-10T17:41:17.195Z,78.86
2018-09-10T17:43:47.325Z,79.28
2018-09-10T17:46:17.567Z,79.19
2018-09-10T17:48:47.681Z,80.01
2018-09-10T17:51:17.846Z,81.56
2018-09-10T17:53:48.005Z,82.17
2018-09-10T17:56:18.133Z,82.05
2018-09-10T17:58:48.334Z,83.17
2018-09-10T18:01:18.471Z,84.22
2018-09-10T18:03:48.611Z,83.76
2018-09-10T18:06:18.711Z,84.57
2018-09-10T18:08:48.958Z,84.57
2018-09-10T18:11:20.080Z,85.01
2018-09-10T18:13:50.549Z,85.30
2018-09-10T18:16:20.627Z,86.35
2018-09-10T18:18:50.747Z,86.67
2018-09-10T18:21:21.203Z,87.63
2018-09-10T18:23:51.292Z,88.64
2018-09-10T18:26:21.459Z,88.89
2018-09-10T18:28:51.918Z,89.62
2018-09-10T18:31:22.136Z,90.14
2018-09-10T18:33:52.458Z,90.83
2018-09-10T18:36:22.559Z,91.28
2018-09-10T18:38:53.416Z,91.35
2018-09-10T18:41:23.552Z,91.79
2018-09-10T18:43:53.804Z,92.02
2018-09-10T18:46:23.954Z,91.53
2018-09-10T18:48:54.189Z,91.73
2018-09-10T18:51:24.321Z,91.46
2018-09-10T18:53:54.611Z,91.54
2018-09-10T18:56:24.788Z,91.88
2018-09-10T18:58:54.930Z,92.16
2018-09-10T19:01:25.168Z,92.48
2018-09-10T19:03:55.179Z,92.80
2018-09-10T19:06:25.367Z,93.09
2018-09-10T19:08:55.483Z,93.98
2018-09-10T19:11:25.546Z,94.33
2018-09-10T19:13:55.854Z,94.85
2018-09-10T19:16:26.008Z,95.42
2018-09-10T19:18:57.114Z,95.52
2018-09-10T19:21:27.672Z,96.05
2018-09-10T19:23:58.193Z,96.44
2018-09-10T19:26:28.357Z,96.41
2018-09-10T19:28:58.863Z,97.32
2018-09-10T19:31:29.240Z,97.65
2018-09-10T19:33:59.422Z,97.81
2018-09-10T19:36:29.613Z,97.82
2018-09-10T19:39:00.118Z,98.37
2018-09-10T19:41:30.260Z,98.26
2018-09-10T19:44:00.410Z,98.53
2018-09-10T19:46:30.602Z,99.20
2018-09-10T19:49:00.775Z,99.69
2018-09-10T19:51:30.887Z,99.33
2018-09-10T19:54:01.218Z,99.62
2018-09-10T19:56:31.355Z,99.57
2018-09-10T19:59:01.566Z,99.76
2018-09-10T20:01:31.782Z,100.00
2018-09-10T20:04:02.014Z,99.89
2018-09-10T20:06:32.284Z,99.90
2018-09-10T20:09:02.589Z,99.75
2018-09-10T20:11:32.857Z,99.39
2018-09-10T20:14:03.224Z,98.82
2018-09-10T20:16:33.338Z,98.68
2018-09-10T20:19:03.646Z,98.74
2018-09-10T20:21:33.783Z,98.21
2018-09-10T20:24:03.989Z,98.53
2018-09-10T20:26:34.183Z,98.43
2018-09-10T20:29:04.325Z,98.12
2018-09-10T20:31:34.551Z,97.93
2018-09-10T20:34:06.294Z,97.31
2018-09-10T20:36:37.545Z,97.26
2018-09-10T20:39:12.519Z,97.54
2018-09-10T20:41:42.680Z,97.48
2018-09-10T20:44:12.871Z,98.41
2018-09-10T20:46:43.130Z,98.33
2018-09-10T20:49:13.264Z,98.12
2018-09-10T20:51:43.394Z,97.96
2018-09-10T20:54:13.537Z,97.09
2018-09-10T20:56:43.694Z,96.61
2018-09-10T20:59:14.000Z,96.12
2018-09-10T21:01:44.239Z,95.24
2018-09-10T21:04:14.424Z,93.32
2018-09-10T21:06:44.544Z,91.81
2018-09-10T21:09:14.796Z,91.42
2018-09-10T21:11:44.969Z,91.31
2018-09-10T21:14:15.322Z,91.34
2018-09-10T21:16:45.570Z,92.04
2018-09-10T21:19:15.853Z,92.49
2018-09-10T21:21:45.989Z,93.69
2018-09-10T21:24:16.263Z,94.18
2018-09-10T21:26:46.378Z,94.49
2018-09-10T21:29:16.605Z,94.84
2018-09-10T21:31:46.944Z,94.88
2018-09-10T21:34:17.198Z,95.03
2018-09-10T21:36:47.414Z,95.54
2018-09-10T21:39:17.685Z,95.88
2018-09-10T21:41:48.001Z,96.29
2018-09-10T21:44:18.379Z,97.43
2018-09-10T21:46:48.604Z,97.62
2018-09-10T21:49:18.938Z,97.28
2018-09-10T21:51:49.318Z,97.46
2018-09-10T21:54:19.587Z,97.42
2018-09-10T21:56:49.923Z,98.05
2018-09-10T21:59:20.449Z,98.50
2018-09-10T22:01:50.629Z,98.40
2018-09-10T22:04:20.794Z,99.13
2018-09-10T22:06:51.326Z,99.81
2018-09-10T22:09:21.454Z,100.00
2018-09-10T22:11:56.650Z,100.00
2018-09-10T22:14:26.842Z,100.00
2018-09-10T22:16:57.144Z,100.00
2018-09-10T22:19:27.313Z,100.00
2018-09-10T22:21:57.717Z,100.00
2018-09-10T22:24:28.224Z,100.00
2018-09-10T22:26:58.430Z,100.00
2018-09-10T22:29:28.716Z,100.00
2018-09-10T22:31:59.778Z,100.00
2018-09-10T22:34:29.961Z,100.00
2018-09-10T22:37:00.307Z,100.00
2018-09-10T22:39:30.503Z,100.00
2018-09-10T22:42:00.722Z,100.00
2018-09-10T22:44:31.181Z,100.00
2018-09-10T22:47:01.415Z,100.00
2018-09-10T22:49:31.844Z,100.00
2018-09-10T22:52:01.923Z,100.00
2018-09-10T22:54:32.161Z,100.00
2018-09-10T22:57:02.650Z,100.00
2018-09-10T22:59:32.861Z,100.00
2018-09-10T23:02:03.049Z,100.00
2018-09-10T23:04:33.204Z,100.00
2018-09-10T23:07:03.364Z,100.00
2018-09-10T23:09:33.544Z,100.00
2018-09-10T23:12:03.729Z,100.00
2018-09-10T23:14:33.951Z,100.00
2018-09-10T23:17:04.216Z,100.00
2018-09-10T23:19:34.392Z,100.00
2018-09-10T23:22:04.552Z,100.00
2018-09-10T23:24:34.632Z,100.00
2018-09-10T23:27:04.734Z,100.00
2018-09-10T23:29:34.845Z,100.00
2018-09-10T23:32:04.973Z,100.00
2018-09-10T23:34:35.270Z,100.00
2018-09-10T23:37:05.597Z,100.00
2018-09-10T23:39:35.714Z,100.00
2018-09-10T23:42:05.896Z,100.00
2018-09-10T23:44:36.164Z,100.00
2018-09-10T23:47:06.255Z,100.00
2018-09-10T23:49:36.383Z,100.00
2018-09-10T23:52:07.101Z,100.00
2018-09-10T23:54:37.205Z,100.00
2018-09-10T23:57:07.388Z,100.00
2018-09-10T23:59:37.542Z,100.00
